createdAt,value
2019-05-30T00:00:06.759Z,3.00
2019-05-30T00:02:22.759Z,2.90
2019-05-30T00:04:49.728Z,3.17
2019-05-30T00:07:16.669Z,3.30
2019-05-30T00:09:43.710Z,2.30
2019-05-30T00:12:10.713Z,2.50
2019-05-30T00:14:37.705Z,2.70
2019-05-30T00:17:05.166Z,2.40
2019-05-30T00:19:33.922Z,2.80
2019-05-30T00:22:01.268Z,2.40
2019-05-30T00:24:28.260Z,2.60
2019-05-30T00:26:56.195Z,2.60
2019-05-30T00:29:23.228Z,2.97
2019-05-30T00:31:50.321Z,2.70
2019-05-30T00:34:18.992Z,2.53
2019-05-30T00:36:46.041Z,2.27
2019-05-30T00:39:13.061Z,3.07
2019-05-30T00:41:40.053Z,2.77
2019-05-30T00:44:07.156Z,3.83
2019-05-30T00:46:34.238Z,2.30
2019-05-30T00:49:02.439Z,2.10
2019-05-30T00:51:29.702Z,2.70
2019-05-30T00:53:56.720Z,2.13
2019-05-30T00:56:23.778Z,2.60
2019-05-30T00:58:50.825Z,2.87
2019-05-30T01:01:17.809Z,3.13
2019-05-30T01:03:44.750Z,3.20
2019-05-30T01:06:11.748Z,3.03
2019-05-30T01:08:38.717Z,5.50
2019-05-30T01:11:05.645Z,2.97
2019-05-30T01:13:32.538Z,2.63
2019-05-30T01:15:59.477Z,2.70
2019-05-30T01:18:26.522Z,2.67
2019-05-30T01:20:53.496Z,3.30
2019-05-30T01:23:20.432Z,3.60
2019-05-30T01:25:47.328Z,3.33
2019-05-30T01:28:14.340Z,4.20
2019-05-30T01:30:41.655Z,3.90
2019-05-30T01:33:08.697Z,3.87
2019-05-30T01:35:35.716Z,3.80
2019-05-30T01:38:03.997Z,3.70
2019-05-30T01:40:31.147Z,4.17
2019-05-30T01:42:58.185Z,5.33
2019-05-30T01:45:25.356Z,2.80
2019-05-30T01:47:52.276Z,4.20
2019-05-30T01:50:19.342Z,3.43
2019-05-30T01:52:46.305Z,2.77
2019-05-30T01:55:13.293Z,3.17
2019-05-30T01:57:40.272Z,3.00
2019-05-30T02:00:19.817Z,3.00
2019-05-30T02:02:38.575Z,2.60
2019-05-30T02:05:07.570Z,3.13
2019-05-30T02:07:34.892Z,3.10
2019-05-30T02:10:03.275Z,3.20
2019-05-30T02:12:30.534Z,3.40
2019-05-30T02:14:57.670Z,3.50
2019-05-30T02:17:24.718Z,3.27
2019-05-30T02:19:54.805Z,2.60
2019-05-30T02:22:21.800Z,3.20
2019-05-30T02:24:48.762Z,3.50
2019-05-30T02:27:15.669Z,3.20
2019-05-30T02:29:42.769Z,3.10
2019-05-30T02:32:11.119Z,3.17
2019-05-30T02:34:38.222Z,3.33
2019-05-30T02:37:06.097Z,3.10
2019-05-30T02:39:34.162Z,2.97
2019-05-30T02:42:03.070Z,3.00
2019-05-30T02:44:30.137Z,2.80
2019-05-30T02:46:57.111Z,3.00
2019-05-30T02:49:24.066Z,3.00
2019-05-30T02:51:51.186Z,2.67
2019-05-30T02:54:18.200Z,3.03
2019-05-30T02:56:45.230Z,2.87
2019-05-30T02:59:13.642Z,2.97
2019-05-30T03:01:58.923Z,2.33
2019-05-30T03:04:10.989Z,3.47
2019-05-30T03:06:39.077Z,2.83
2019-05-30T03:09:06.897Z,2.77
2019-05-30T03:11:35.558Z,3.00
2019-05-30T03:14:04.344Z,2.60
2019-05-30T03:16:31.750Z,3.27
2019-05-30T03:18:59.174Z,3.10
2019-05-30T03:21:26.273Z,2.90
2019-05-30T03:23:53.295Z,3.23
2019-05-30T03:26:20.239Z,2.77
2019-05-30T03:28:47.294Z,2.80
2019-05-30T03:31:27.404Z,2.63
2019-05-30T03:33:44.496Z,2.67
2019-05-30T03:36:24.308Z,3.20
2019-05-30T03:38:40.329Z,3.10
2019-05-30T03:41:09.105Z,3.23
2019-05-30T03:43:36.336Z,2.83
2019-05-30T03:46:06.099Z,7.80
2019-05-30T03:48:34.414Z,3.10
2019-05-30T03:51:04.182Z,2.80
2019-05-30T03:53:31.487Z,3.90
2019-05-30T03:56:09.204Z,3.37
2019-05-30T03:58:50.328Z,3.70
2019-05-30T04:01:24.195Z,3.17
2019-05-30T04:04:12.132Z,3.80
2019-05-30T04:06:43.802Z,4.17
2019-05-30T04:09:21.604Z,3.20
2019-05-30T04:11:55.113Z,2.73
2019-05-30T04:14:26.678Z,3.20
2019-05-30T04:16:53.798Z,3.47
2019-05-30T04:19:20.806Z,2.97
2019-05-30T04:21:47.964Z,2.37
2019-05-30T04:24:16.322Z,2.97
2019-05-30T04:26:43.565Z,3.43
2019-05-30T04:29:12.041Z,3.07
2019-05-30T04:31:39.369Z,3.30
2019-05-30T04:34:08.153Z,2.93
2019-05-30T04:36:35.195Z,3.00
2019-05-30T04:39:02.384Z,3.03
2019-05-30T04:41:29.365Z,3.10
2019-05-30T04:43:56.361Z,3.87
2019-05-30T04:46:23.355Z,2.70
2019-05-30T04:48:50.410Z,3.23
2019-05-30T04:51:19.571Z,3.40
2019-05-30T04:53:46.266Z,3.37
2019-05-30T04:56:14.573Z,3.30
2019-05-30T04:58:42.766Z,3.43
2019-05-30T05:01:11.000Z,3.03
2019-05-30T05:03:45.795Z,3.13
2019-05-30T05:06:06.940Z,2.87
2019-05-30T05:08:33.833Z,3.27
2019-05-30T05:11:00.957Z,2.83
2019-05-30T05:13:28.003Z,2.67
2019-05-30T05:15:56.118Z,3.20
2019-05-30T05:18:23.413Z,4.87
2019-05-30T05:20:50.597Z,3.67
2019-05-30T05:23:17.636Z,3.53
2019-05-30T05:25:57.741Z,3.80
2019-05-30T05:28:13.692Z,3.50
2019-05-30T05:30:40.711Z,3.60
2019-05-30T05:33:07.748Z,4.53
2019-05-30T05:35:34.654Z,3.80
2019-05-30T05:38:01.721Z,3.40
2019-05-30T05:40:28.652Z,3.80
2019-05-30T05:42:55.577Z,4.20
2019-05-30T05:45:22.799Z,4.50
2019-05-30T05:47:49.990Z,4.40
2019-05-30T05:50:18.363Z,5.37
2019-05-30T05:52:45.443Z,4.97
2019-05-30T05:55:12.634Z,5.50
2019-05-30T05:57:39.676Z,4.63
2019-05-30T06:00:06.717Z,5.50
2019-05-30T06:02:33.716Z,4.93
2019-05-30T06:05:00.700Z,5.60
2019-05-30T06:07:28.606Z,6.47
2019-05-30T06:09:55.838Z,7.53
2019-05-30T06:12:23.823Z,6.10
2019-05-30T06:14:51.142Z,5.07
2019-05-30T06:17:18.981Z,7.10
2019-05-30T06:19:46.972Z,6.63
2019-05-30T06:22:14.149Z,7.60
2019-05-30T06:24:41.204Z,4.90
2019-05-30T06:27:08.287Z,5.30
2019-05-30T06:29:35.302Z,5.10
2019-05-30T06:32:02.524Z,5.77
2019-05-30T06:34:39.222Z,6.40
2019-05-30T06:37:03.383Z,5.97
2019-05-30T06:39:32.787Z,5.90
2019-05-30T06:41:59.785Z,4.57
2019-05-30T06:44:27.814Z,3.97
2019-05-30T06:46:55.174Z,4.30
2019-05-30T06:49:22.757Z,4.10
2019-05-30T06:51:50.057Z,4.20
2019-05-30T06:54:17.213Z,4.53
2019-05-30T06:56:46.191Z,4.30
2019-05-30T06:59:13.338Z,3.80
2019-05-30T07:01:40.365Z,4.50
2019-05-30T07:04:07.617Z,4.63
2019-05-30T07:06:35.139Z,4.27
2019-05-30T07:09:03.788Z,4.53
2019-05-30T07:11:31.032Z,4.30
2019-05-30T07:13:57.986Z,3.80
2019-05-30T07:16:25.379Z,4.20
2019-05-30T07:18:52.378Z,4.40
2019-05-30T07:21:19.360Z,4.47
2019-05-30T07:23:46.270Z,4.30
2019-05-30T07:26:13.336Z,4.00
2019-05-30T07:28:40.441Z,4.90
2019-05-30T07:31:07.553Z,4.03
2019-05-30T07:33:34.636Z,4.40
2019-05-30T07:36:01.622Z,4.53
2019-05-30T07:38:30.290Z,3.80
2019-05-30T07:40:57.620Z,5.13
2019-05-30T07:43:26.260Z,4.50
2019-05-30T07:45:58.248Z,3.73
2019-05-30T07:48:22.424Z,6.10
2019-05-30T07:50:49.473Z,4.77
2019-05-30T07:53:16.474Z,4.40
2019-05-30T07:55:44.194Z,4.43
2019-05-30T07:58:11.381Z,5.07
2019-05-30T08:00:38.365Z,4.07
2019-05-30T08:03:06.453Z,4.60
2019-05-30T08:05:33.378Z,4.10
2019-05-30T08:08:03.749Z,3.90
2019-05-30T08:10:40.164Z,4.80
2019-05-30T08:13:07.196Z,4.97
2019-05-30T08:15:36.359Z,3.57
2019-05-30T08:18:03.225Z,4.13
2019-05-30T08:20:30.337Z,3.57
2019-05-30T08:22:57.348Z,4.83
2019-05-30T08:25:24.508Z,3.80
2019-05-30T08:27:51.598Z,3.60
2019-05-30T08:30:19.119Z,3.63
2019-05-30T08:32:46.161Z,3.90
2019-05-30T08:35:14.224Z,3.97
2019-05-30T08:37:41.212Z,3.33
2019-05-30T08:40:08.420Z,3.77
2019-05-30T08:42:35.438Z,4.20
2019-05-30T08:45:02.425Z,3.70
2019-05-30T08:47:29.825Z,4.50
2019-05-30T08:49:56.965Z,3.73
2019-05-30T08:52:26.915Z,3.63
2019-05-30T08:54:53.992Z,3.57
2019-05-30T08:57:21.067Z,3.90
2019-05-30T08:59:48.079Z,3.50
2019-05-30T09:02:15.200Z,6.13
2019-05-30T09:04:42.204Z,3.93
2019-05-30T09:07:09.204Z,4.27
2019-05-30T09:09:36.205Z,4.00
2019-05-30T09:12:03.251Z,4.57
2019-05-30T09:14:30.259Z,3.77
2019-05-30T09:16:57.230Z,3.37
2019-05-30T09:19:24.244Z,4.13
2019-05-30T09:21:51.247Z,5.93
2019-05-30T09:24:18.369Z,3.30
2019-05-30T09:26:48.675Z,3.80
2019-05-30T09:29:14.315Z,3.33
2019-05-30T09:31:42.732Z,3.70
2019-05-30T09:34:12.079Z,2.80
2019-05-30T09:36:39.926Z,3.50
2019-05-30T09:39:07.757Z,4.60
2019-05-30T09:41:34.765Z,3.70
2019-05-30T09:44:01.848Z,3.83
2019-05-30T09:46:28.762Z,2.93
2019-05-30T09:48:55.862Z,3.43
2019-05-30T09:51:22.924Z,3.20
2019-05-30T09:53:50.484Z,3.50
2019-05-30T09:56:17.652Z,2.97
2019-05-30T09:58:46.025Z,3.73
2019-05-30T10:01:13.219Z,3.27
2019-05-30T10:03:40.402Z,3.70
2019-05-30T10:06:07.530Z,5.33
2019-05-30T10:08:35.019Z,3.10
2019-05-30T10:11:02.008Z,3.23
2019-05-30T10:13:28.974Z,3.70
2019-05-30T10:15:56.728Z,3.10
2019-05-30T10:18:24.036Z,2.97
2019-05-30T10:20:52.005Z,2.70
2019-05-30T10:23:19.931Z,2.70
2019-05-30T10:25:47.873Z,2.90
2019-05-30T10:28:15.441Z,2.57
2019-05-30T10:30:42.498Z,3.30
2019-05-30T10:33:09.520Z,2.60
2019-05-30T10:35:36.754Z,2.77
2019-05-30T10:38:04.336Z,4.23
2019-05-30T10:40:32.195Z,3.17
2019-05-30T10:42:59.383Z,2.80
2019-05-30T10:45:27.293Z,3.80
2019-05-30T10:47:54.669Z,2.60
2019-05-30T10:50:22.535Z,2.70
2019-05-30T10:52:49.564Z,2.40
2019-05-30T10:55:17.516Z,2.93
2019-05-30T10:57:45.412Z,2.30
2019-05-30T11:00:14.265Z,3.00
2019-05-30T11:02:41.687Z,2.57
2019-05-30T11:05:09.398Z,2.30
2019-05-30T11:08:05.837Z,2.43
2019-05-30T11:10:36.426Z,2.57
2019-05-30T11:13:05.967Z,2.80
2019-05-30T11:15:32.781Z,3.00
2019-05-30T11:17:59.770Z,1.90
2019-05-30T11:20:26.765Z,2.80
2019-05-30T11:22:54.591Z,2.30
2019-05-30T11:25:21.686Z,2.10
2019-05-30T11:27:48.935Z,2.30
2019-05-30T11:30:16.290Z,2.03
2019-05-30T11:32:43.326Z,2.27
2019-05-30T11:35:10.363Z,2.17
2019-05-30T11:37:37.233Z,1.53
2019-05-30T11:40:04.397Z,1.50
2019-05-30T11:42:31.329Z,1.50
2019-05-30T11:44:58.282Z,2.23
2019-05-30T11:47:25.346Z,1.60
2019-05-30T11:49:53.522Z,2.00
2019-05-30T11:52:20.758Z,1.60
2019-05-30T11:54:47.767Z,4.43
2019-05-30T11:57:14.886Z,4.00
2019-05-30T11:59:41.806Z,3.77
2019-05-30T12:02:08.664Z,3.00
2019-05-30T12:04:35.603Z,3.30
2019-05-30T12:07:02.523Z,1.53
2019-05-30T12:09:30.020Z,2.07
2019-05-30T12:11:57.444Z,1.77
2019-05-30T12:14:24.546Z,1.97
2019-05-30T12:16:51.568Z,1.70
2019-05-30T12:19:18.592Z,1.70
2019-05-30T12:21:45.568Z,3.43
2019-05-30T12:24:12.500Z,2.53
2019-05-30T12:26:39.506Z,1.80
2019-05-30T12:29:06.568Z,2.17
2019-05-30T12:31:33.618Z,2.17
2019-05-30T12:34:00.669Z,1.73
2019-05-30T12:36:27.869Z,2.07
2019-05-30T12:38:54.952Z,2.40
2019-05-30T12:41:21.966Z,2.10
2019-05-30T12:43:49.017Z,2.10
2019-05-30T12:46:15.898Z,3.47
2019-05-30T12:48:42.837Z,2.57
2019-05-30T12:51:09.850Z,1.87
2019-05-30T12:53:36.824Z,1.83
2019-05-30T12:56:04.178Z,2.17
2019-05-30T12:58:31.222Z,1.97
2019-05-30T13:00:58.733Z,2.50
2019-05-30T13:03:25.948Z,1.83
2019-05-30T13:05:52.990Z,5.50
2019-05-30T13:08:21.846Z,2.20
2019-05-30T13:10:49.104Z,2.47
2019-05-30T13:13:16.079Z,2.70
2019-05-30T13:15:43.164Z,4.17
2019-05-30T13:18:10.073Z,2.60
2019-05-30T13:20:37.345Z,2.50
2019-05-30T13:23:04.738Z,2.50
2019-05-30T13:25:31.953Z,2.30
2019-05-30T13:28:03.204Z,2.60
2019-05-30T13:30:27.896Z,2.00
2019-05-30T13:32:54.858Z,1.93
2019-05-30T13:35:21.851Z,1.70
2019-05-30T13:37:48.859Z,2.20
2019-05-30T13:40:24.925Z,1.93
2019-05-30T13:42:45.448Z,2.43
2019-05-30T13:45:12.440Z,2.20
2019-05-30T13:47:39.407Z,1.97
2019-05-30T13:50:12.714Z,2.33
2019-05-30T13:52:37.124Z,2.33
2019-05-30T13:55:05.631Z,2.13
2019-05-30T13:57:32.655Z,2.30
2019-05-30T13:59:59.750Z,2.53
2019-05-30T14:02:27.224Z,2.40
2019-05-30T14:04:57.217Z,2.23
2019-05-30T14:07:27.195Z,2.70
2019-05-30T14:09:54.852Z,2.00
2019-05-30T14:12:21.962Z,2.20
2019-05-30T14:14:49.002Z,2.87
2019-05-30T14:17:18.947Z,1.80
2019-05-30T14:19:46.125Z,2.27
2019-05-30T14:22:13.005Z,2.60
2019-05-30T14:24:40.135Z,2.50
2019-05-30T14:27:09.624Z,2.30
2019-05-30T14:29:36.662Z,2.43
2019-05-30T14:32:03.854Z,1.90
2019-05-30T14:34:31.049Z,2.20
2019-05-30T14:36:58.268Z,2.20
2019-05-30T14:39:25.316Z,2.67
2019-05-30T14:41:52.596Z,2.50
2019-05-30T14:44:19.561Z,2.30
2019-05-30T14:46:46.530Z,2.80
2019-05-30T14:49:13.413Z,2.63
2019-05-30T14:51:40.417Z,3.30
2019-05-30T14:54:07.279Z,3.27
2019-05-30T14:56:34.193Z,2.20
2019-05-30T14:59:01.183Z,2.63
2019-05-30T15:01:28.327Z,2.17
2019-05-30T15:03:55.331Z,2.50
2019-05-30T15:06:22.280Z,2.27
2019-05-30T15:08:49.274Z,14.83
2019-05-30T15:11:16.246Z,3.10
2019-05-30T15:13:43.189Z,1.90
2019-05-30T15:16:10.878Z,2.53
2019-05-30T15:18:38.059Z,2.80
2019-05-30T15:21:06.187Z,2.23
2019-05-30T15:23:35.353Z,2.70
2019-05-30T15:26:02.812Z,2.17
2019-05-30T15:28:29.766Z,3.00
2019-05-30T15:30:56.716Z,3.33
2019-05-30T15:33:23.793Z,1.60
2019-05-30T15:35:50.784Z,1.30
2019-05-30T15:38:17.741Z,1.60
2019-05-30T15:40:44.768Z,1.67
2019-05-30T15:43:11.999Z,1.60
2019-05-30T15:45:39.330Z,1.60
2019-05-30T15:48:06.571Z,1.80
2019-05-30T15:50:33.588Z,1.53
2019-05-30T15:53:00.642Z,1.63
2019-05-30T15:55:27.702Z,2.23
2019-05-30T15:57:54.712Z,1.30
2019-05-30T16:00:22.288Z,1.57
2019-05-30T16:02:49.694Z,1.60
2019-05-30T16:05:16.859Z,1.50
2019-05-30T16:07:43.886Z,1.70
2019-05-30T16:10:11.194Z,2.77
2019-05-30T16:12:38.264Z,1.90
2019-05-30T16:15:05.729Z,1.90
2019-05-30T16:17:33.014Z,1.40
2019-05-30T16:20:00.121Z,1.77
2019-05-30T16:22:27.109Z,1.80
2019-05-30T16:24:54.149Z,1.90
2019-05-30T16:27:21.844Z,1.90
2019-05-30T16:29:48.833Z,2.40
2019-05-30T16:32:15.931Z,1.77
2019-05-30T16:34:43.017Z,1.90
2019-05-30T16:37:09.953Z,1.70
2019-05-30T16:39:37.382Z,1.80
2019-05-30T16:42:04.415Z,1.77
2019-05-30T16:44:33.394Z,1.63
2019-05-30T16:47:00.696Z,1.67
2019-05-30T16:49:27.637Z,1.87
2019-05-30T16:51:55.296Z,1.67
2019-05-30T16:54:23.460Z,2.20
2019-05-30T16:56:51.051Z,2.00
2019-05-30T16:59:18.607Z,1.70
2019-05-30T17:01:54.708Z,1.70
2019-05-30T17:04:14.850Z,1.70
2019-05-30T17:06:41.952Z,2.17
2019-05-30T17:09:09.042Z,1.60
2019-05-30T17:11:36.759Z,1.77
2019-05-30T17:14:04.533Z,3.10
2019-05-30T17:16:31.750Z,1.80
2019-05-30T17:18:58.821Z,1.80
2019-05-30T17:21:26.814Z,3.00
2019-05-30T17:23:54.193Z,1.93
2019-05-30T17:26:21.338Z,2.27
2019-05-30T17:28:49.129Z,1.90
2019-05-30T17:31:17.629Z,1.70
2019-05-30T17:33:45.330Z,2.50
2019-05-30T17:36:13.042Z,1.53
2019-05-30T17:38:40.950Z,1.40
2019-05-30T17:41:08.471Z,1.53
2019-05-30T17:43:37.999Z,2.27
2019-05-30T17:46:07.776Z,2.30
2019-05-30T17:48:36.267Z,2.43
2019-05-30T17:51:03.863Z,1.77
2019-05-30T17:53:31.098Z,1.90
2019-05-30T17:55:59.503Z,1.70
2019-05-30T17:58:26.675Z,1.70
2019-05-30T18:00:57.039Z,2.10
2019-05-30T18:03:24.332Z,2.50
2019-05-30T18:05:52.004Z,2.10
2019-05-30T18:08:19.225Z,1.90
2019-05-30T18:10:53.925Z,1.80
2019-05-30T18:13:15.331Z,2.47
2019-05-30T18:15:42.355Z,2.10
2019-05-30T18:18:10.822Z,2.70
2019-05-30T18:20:47.733Z,2.50
2019-05-30T18:23:07.032Z,2.00
2019-05-30T18:25:35.072Z,1.93
2019-05-30T18:28:02.608Z,2.10
2019-05-30T18:30:42.408Z,1.80
2019-05-30T18:33:09.513Z,1.93
2019-05-30T18:35:36.420Z,1.93
2019-05-30T18:38:03.610Z,1.77
2019-05-30T18:40:33.262Z,2.40
2019-05-30T18:43:00.407Z,2.30
2019-05-30T18:45:38.206Z,2.23
2019-05-30T18:48:06.368Z,2.00
2019-05-30T18:50:33.571Z,3.00
2019-05-30T18:53:01.172Z,2.50
2019-05-30T18:55:28.670Z,2.27
2019-05-30T18:57:56.049Z,2.50
2019-05-30T19:00:23.057Z,1.77
2019-05-30T19:02:50.156Z,1.80
2019-05-30T19:05:20.177Z,1.97
2019-05-30T19:07:47.288Z,1.70
2019-05-30T19:10:14.349Z,2.10
2019-05-30T19:12:41.410Z,2.37
2019-05-30T19:15:09.755Z,2.63
2019-05-30T19:17:37.536Z,2.43
2019-05-30T19:20:05.240Z,2.50
2019-05-30T19:22:32.401Z,2.20
2019-05-30T19:25:00.980Z,3.27
2019-05-30T19:27:32.410Z,3.47
2019-05-30T19:30:00.534Z,2.73
2019-05-30T19:32:28.585Z,3.10
2019-05-30T19:34:57.240Z,3.53
2019-05-30T19:37:24.200Z,3.90
2019-05-30T19:39:51.205Z,4.43
2019-05-30T19:42:18.762Z,4.13
2019-05-30T19:44:46.367Z,3.63
2019-05-30T19:47:14.009Z,4.63
2019-05-30T19:49:41.765Z,4.10
2019-05-30T19:52:09.480Z,3.30
2019-05-30T19:54:43.114Z,4.23
2019-05-30T19:57:10.454Z,3.53
2019-05-30T19:59:38.127Z,3.67
2019-05-30T20:02:31.892Z,3.97
2019-05-30T20:04:59.658Z,4.07
2019-05-30T20:07:27.685Z,3.60
2019-05-30T20:10:01.440Z,4.20
2019-05-30T20:12:24.927Z,3.53
2019-05-30T20:14:52.983Z,3.63
2019-05-30T20:17:21.118Z,3.97
2019-05-30T20:19:49.716Z,3.90
2019-05-30T20:22:20.183Z,3.90
2019-05-30T20:24:47.857Z,4.10
2019-05-30T20:27:15.925Z,4.07
2019-05-30T20:29:46.299Z,3.50
2019-05-30T20:32:12.528Z,3.70
2019-05-30T20:34:40.911Z,2.77
2019-05-30T20:37:08.629Z,3.50
2019-05-30T20:39:36.599Z,4.30
2019-05-30T20:42:18.950Z,3.80
2019-05-30T20:44:36.919Z,3.27
2019-05-30T20:47:04.714Z,2.83
2019-05-30T20:49:32.290Z,2.73
2019-05-30T20:51:59.767Z,2.40
2019-05-30T20:54:35.255Z,3.20
2019-05-30T20:57:04.442Z,2.93
2019-05-30T20:59:38.772Z,3.40
2019-05-30T21:02:13.662Z,3.27
2019-05-30T21:04:42.969Z,3.00
2019-05-30T21:07:15.153Z,2.43
2019-05-30T21:09:44.224Z,2.70
2019-05-30T21:12:14.277Z,3.20
2019-05-30T21:14:45.813Z,3.43
2019-05-30T21:17:15.052Z,3.50
2019-05-30T21:19:42.324Z,3.30
2019-05-30T21:22:44.588Z,3.50
2019-05-30T21:25:13.943Z,2.90
2019-05-30T21:27:42.879Z,2.97
2019-05-30T21:30:10.700Z,2.60
2019-05-30T21:32:39.793Z,3.00
2019-05-30T21:35:07.402Z,3.33
2019-05-30T21:37:34.863Z,3.37
2019-05-30T21:40:01.904Z,3.80
2019-05-30T21:42:30.133Z,3.07
2019-05-30T21:44:57.061Z,2.97
2019-05-30T21:47:24.003Z,2.83
2019-05-30T21:49:51.467Z,2.77
2019-05-30T21:52:18.551Z,2.70
2019-05-30T21:54:45.788Z,2.30
2019-05-30T21:57:13.100Z,2.20
2019-05-30T21:59:40.255Z,2.53
2019-05-30T22:02:08.050Z,2.80
2019-05-30T22:04:42.799Z,2.60
2019-05-30T22:07:15.267Z,2.50
2019-05-30T22:09:55.081Z,7.37
2019-05-30T22:12:28.552Z,6.53
2019-05-30T22:15:06.172Z,4.50
2019-05-30T22:17:40.218Z,3.50
2019-05-30T22:20:13.996Z,3.60
2019-05-30T22:22:47.937Z,3.10
2019-05-30T22:25:18.180Z,3.40
2019-05-30T22:27:52.560Z,2.90
2019-05-30T22:30:21.548Z,2.07
2019-05-30T22:32:54.107Z,2.43
2019-05-30T22:35:25.554Z,2.50
2019-05-30T22:38:03.115Z,3.00
2019-05-30T22:40:32.303Z,2.30
2019-05-30T22:43:01.471Z,2.50
2019-05-30T22:45:37.336Z,2.23
2019-05-30T22:48:04.305Z,2.73
2019-05-30T22:50:31.238Z,3.30
2019-05-30T22:52:58.150Z,2.30
2019-05-30T22:55:25.231Z,2.80
2019-05-30T22:57:53.278Z,2.87
2019-05-30T23:00:20.247Z,3.10
2019-05-30T23:02:47.839Z,3.30
2019-05-30T23:05:15.134Z,4.10
2019-05-30T23:07:42.082Z,4.57
2019-05-30T23:10:09.322Z,3.50
2019-05-30T23:12:36.463Z,3.50
2019-05-30T23:15:03.850Z,3.50
2019-05-30T23:17:30.877Z,3.90
2019-05-30T23:19:57.786Z,4.10
2019-05-30T23:22:24.853Z,4.20
2019-05-30T23:24:52.592Z,4.00
2019-05-30T23:27:20.830Z,4.77
2019-05-30T23:29:47.896Z,3.97
2019-05-30T23:32:14.881Z,4.30
2019-05-30T23:34:41.961Z,3.20
2019-05-30T23:37:08.845Z,3.80
2019-05-30T23:39:35.876Z,3.93
2019-05-30T23:42:02.752Z,5.50
2019-05-30T23:44:29.740Z,5.50
2019-05-30T23:46:57.836Z,4.40
2019-05-30T23:49:25.087Z,3.30
2019-05-30T23:51:51.989Z,3.03
2019-05-30T23:54:19.088Z,3.13
2019-05-30T23:56:46.096Z,3.43
2019-05-30T23:59:13.106Z,3.20
